NKS1541 KLGA-KDTW
Flight info
| Callsign | NKS1541 |
|---|---|
| Flight time | 1h 20m |
| Altitude | 38000 |
| Route | GAYEL J95 CFB TRAAD JACCI FERRL2 |
| Aircraft | A320/M-SDE3FGHIRWY/LB1 |
Departure
| Time | 2026-05-04 16:37 |
|---|---|
| Airport | LaGuardia Airport (KLGA) |
Arrival
| Time | 2026-05-04 17:57 |
|---|---|
| Airport | Detroit Metropolitan Wayne County Airport (KDTW) |
| Time | Latitude | Longitude | Altitude | Speed | Heading |
|---|---|---|---|---|---|
| 2026-05-04 16:09 | 40.77403 | -73.88346 | 18 ft | 0 kts | 249° |
| 2026-05-04 16:26 | 40.77398 | -73.88258 | 22 ft | 4 kts | 328° |
| 2026-05-04 16:26 | 40.77378 | -73.88250 | 20 ft | 0 kts | 0° |
| 2026-05-04 16:29 | 40.77432 | -73.88237 | 18 ft | 9 kts | 29° |
| 2026-05-04 16:30 | 40.77656 | -73.88050 | 18 ft | 16 kts | 31° |
| 2026-05-04 16:31 | 40.77851 | -73.87890 | 18 ft | 18 kts | 32° |
| 2026-05-04 16:31 | 40.78049 | -73.87709 | 18 ft | 7 kts | 90° |
| 2026-05-04 16:32 | 40.77928 | -73.87453 | 18 ft | 15 kts | 122° |
| 2026-05-04 16:33 | 40.77794 | -73.87175 | 18 ft | 21 kts | 122° |
| 2026-05-04 16:33 | 40.77629 | -73.86834 | 17 ft | 25 kts | 123° |
| 2026-05-04 16:34 | 40.77456 | -73.86466 | 17 ft | 23 kts | 122° |
| 2026-05-04 16:34 | 40.77372 | -73.86291 | 19 ft | 21 kts | 123° |
| 2026-05-04 16:35 | 40.77171 | -73.85870 | 18 ft | 14 kts | 122° |
| 2026-05-04 16:35 | 40.77235 | -73.85768 | 18 ft | 0 kts | 301° |
| 2026-05-04 16:36 | 40.77305 | -73.85913 | 17 ft | 61 kts | 302° |
| 2026-05-04 16:36 | 40.78275 | -73.87909 | 620 ft | 161 kts | 297° |
| 2026-05-04 16:37 | 40.79882 | -73.90378 | 1822 ft | 211 kts | 322° |
| 2026-05-04 16:37 | 40.81250 | -73.91381 | 2220 ft | 237 kts | 327° |
| 2026-05-04 16:37 | 40.84421 | -73.93532 | 3717 ft | 264 kts | 327° |
| 2026-05-04 16:38 | 40.87689 | -73.95685 | 5876 ft | 265 kts | 328° |
| 2026-05-04 16:39 | 40.92570 | -73.99235 | 8792 ft | 270 kts | 325° |
| 2026-05-04 16:39 | 40.95882 | -74.01760 | 10380 ft | 286 kts | 326° |
| 2026-05-04 16:40 | 40.99536 | -74.04539 | 11428 ft | 312 kts | 327° |
| 2026-05-04 16:40 | 41.03325 | -74.07386 | 12989 ft | 318 kts | 327° |
| 2026-05-04 16:41 | 41.07213 | -74.10311 | 14501 ft | 324 kts | 327° |
| 2026-05-04 16:41 | 41.13160 | -74.14804 | 16581 ft | 332 kts | 327° |
| 2026-05-04 16:42 | 41.19223 | -74.19395 | 18547 ft | 341 kts | 326° |
| 2026-05-04 16:43 | 41.23378 | -74.22554 | 19759 ft | 346 kts | 327° |
| 2026-05-04 16:43 | 41.27591 | -74.25750 | 20981 ft | 351 kts | 327° |
| 2026-05-04 16:43 | 41.29719 | -74.27369 | 21538 ft | 354 kts | 327° |
| 2026-05-04 16:44 | 41.38337 | -74.33968 | 23762 ft | 362 kts | 324° |
| 2026-05-04 16:45 | 41.41911 | -74.38656 | 24687 ft | 364 kts | 304° |
| 2026-05-04 16:46 | 41.45750 | -74.47430 | 26061 ft | 370 kts | 300° |
| 2026-05-04 16:46 | 41.48333 | -74.53414 | 26949 ft | 375 kts | 301° |
| 2026-05-04 16:47 | 41.50955 | -74.59467 | 27799 ft | 379 kts | 301° |
| 2026-05-04 16:47 | 41.53582 | -74.65553 | 28621 ft | 383 kts | 300° |
| 2026-05-04 16:48 | 41.57600 | -74.74905 | 29884 ft | 390 kts | 300° |
| 2026-05-04 16:48 | 41.58953 | -74.78062 | 30262 ft | 393 kts | 300° |
| 2026-05-04 16:49 | 41.61685 | -74.84436 | 30993 ft | 397 kts | 300° |
| 2026-05-04 16:49 | 41.64421 | -74.90836 | 31698 ft | 401 kts | 300° |
| 2026-05-04 16:50 | 41.67184 | -74.97307 | 32719 ft | 399 kts | 300° |
| 2026-05-04 16:50 | 41.69917 | -75.03739 | 33750 ft | 396 kts | 300° |
| 2026-05-04 16:51 | 41.72607 | -75.10090 | 34573 ft | 394 kts | 300° |
| 2026-05-04 16:51 | 41.73960 | -75.13283 | 34930 ft | 395 kts | 300° |
| 2026-05-04 16:51 | 41.76675 | -75.19696 | 35607 ft | 396 kts | 299° |
| 2026-05-04 16:52 | 41.79388 | -75.26111 | 36249 ft | 396 kts | 298° |
| 2026-05-04 16:52 | 41.80742 | -75.29331 | 36574 ft | 397 kts | 298° |
| 2026-05-04 16:53 | 41.83433 | -75.35742 | 37178 ft | 397 kts | 298° |
| 2026-05-04 16:53 | 41.87509 | -75.45451 | 37894 ft | 400 kts | 297° |
| 2026-05-04 16:54 | 41.88881 | -75.48729 | 37919 ft | 405 kts | 297° |
| 2026-05-04 16:55 | 41.97182 | -75.68614 | 37903 ft | 408 kts | 297° |
| 2026-05-04 16:56 | 42.04101 | -75.85296 | 37899 ft | 409 kts | 297° |
| 2026-05-04 16:57 | 42.08234 | -75.95305 | 37910 ft | 410 kts | 297° |
| 2026-05-04 16:58 | 42.13750 | -76.08755 | 37903 ft | 410 kts | 297° |
| 2026-05-04 16:59 | 42.15852 | -76.15844 | 37904 ft | 409 kts | 281° |
| 2026-05-04 17:00 | 42.17091 | -76.31027 | 37903 ft | 409 kts | 277° |
| 2026-05-04 17:01 | 42.18538 | -76.50012 | 37896 ft | 408 kts | 277° |
| 2026-05-04 17:02 | 42.19671 | -76.65243 | 37881 ft | 408 kts | 277° |
| 2026-05-04 17:03 | 42.20498 | -76.76609 | 37885 ft | 408 kts | 277° |
| 2026-05-04 17:03 | 42.21322 | -76.88016 | 37885 ft | 407 kts | 277° |
| 2026-05-04 17:04 | 42.22394 | -77.03153 | 37882 ft | 406 kts | 277° |
| 2026-05-04 17:05 | 42.23453 | -77.18312 | 37877 ft | 406 kts | 277° |
| 2026-05-04 17:06 | 42.24224 | -77.29672 | 37879 ft | 405 kts | 277° |
| 2026-05-04 17:07 | 42.24815 | -77.38475 | 37876 ft | 405 kts | 277° |
| 2026-05-04 17:07 | 42.25486 | -77.48544 | 37877 ft | 405 kts | 277° |
| 2026-05-04 17:08 | 42.27103 | -77.59670 | 37851 ft | 403 kts | 284° |
| 2026-05-04 17:09 | 42.28429 | -77.66961 | 37857 ft | 402 kts | 284° |
| 2026-05-04 17:09 | 42.29747 | -77.74308 | 37859 ft | 402 kts | 284° |
| 2026-05-04 17:10 | 42.33018 | -77.92670 | 37874 ft | 402 kts | 284° |
| 2026-05-04 17:11 | 42.34315 | -77.99972 | 37873 ft | 402 kts | 284° |
| 2026-05-04 17:12 | 42.36262 | -78.10984 | 37875 ft | 401 kts | 284° |
| 2026-05-04 17:13 | 42.39461 | -78.29253 | 37882 ft | 400 kts | 284° |
| 2026-05-04 17:14 | 42.42011 | -78.43895 | 37872 ft | 400 kts | 284° |
| 2026-05-04 17:15 | 42.43892 | -78.54833 | 37864 ft | 399 kts | 284° |
| 2026-05-04 17:16 | 42.46390 | -78.69494 | 37809 ft | 400 kts | 284° |
| 2026-05-04 17:17 | 42.47371 | -78.84426 | 37827 ft | 399 kts | 276° |
| 2026-05-04 17:18 | 42.47867 | -78.99431 | 37831 ft | 398 kts | 275° |
| 2026-05-04 17:19 | 42.48331 | -79.14354 | 37827 ft | 397 kts | 275° |
| 2026-05-04 17:20 | 42.48752 | -79.28036 | 37824 ft | 397 kts | 275° |
| 2026-05-04 17:20 | 42.49076 | -79.39243 | 37825 ft | 397 kts | 275° |
| 2026-05-04 17:21 | 42.49491 | -79.54114 | 37829 ft | 396 kts | 275° |
| 2026-05-04 17:22 | 42.49689 | -79.61564 | 37829 ft | 396 kts | 275° |
| 2026-05-04 17:23 | 42.50072 | -79.76406 | 37820 ft | 395 kts | 275° |
| 2026-05-04 17:24 | 42.50350 | -79.87571 | 37818 ft | 395 kts | 274° |
| 2026-05-04 17:25 | 42.50705 | -80.02429 | 37813 ft | 394 kts | 274° |
| 2026-05-04 17:26 | 42.51030 | -80.17250 | 37803 ft | 394 kts | 274° |
| 2026-05-04 17:27 | 42.51430 | -80.35785 | 37811 ft | 395 kts | 274° |
| 2026-05-04 17:28 | 42.51722 | -80.50654 | 37812 ft | 394 kts | 274° |
| 2026-05-04 17:29 | 42.51917 | -80.61803 | 37233 ft | 402 kts | 273° |
| 2026-05-04 17:29 | 42.52049 | -80.72819 | 36425 ft | 384 kts | 273° |
| 2026-05-04 17:30 | 42.52146 | -80.83857 | 35636 ft | 394 kts | 273° |
| 2026-05-04 17:31 | 42.52212 | -80.91254 | 35122 ft | 396 kts | 273° |
| 2026-05-04 17:31 | 42.52318 | -81.02570 | 33288 ft | 407 kts | 273° |
| 2026-05-04 17:32 | 42.52382 | -81.10312 | 31827 ft | 410 kts | 273° |
| 2026-05-04 17:33 | 42.52445 | -81.21707 | 30270 ft | 400 kts | 272° |
| 2026-05-04 17:33 | 42.52462 | -81.25465 | 29730 ft | 397 kts | 272° |
| 2026-05-04 17:34 | 42.52509 | -81.36520 | 28116 ft | 385 kts | 270° |
| 2026-05-04 17:34 | 42.52302 | -81.40125 | 27537 ft | 382 kts | 266° |
| 2026-05-04 17:35 | 42.51520 | -81.50650 | 26007 ft | 368 kts | 266° |
| 2026-05-04 17:35 | 42.51003 | -81.57454 | 25130 ft | 359 kts | 266° |
| 2026-05-04 17:35 | 42.50749 | -81.60805 | 24631 ft | 356 kts | 265° |
| 2026-05-04 17:36 | 42.50497 | -81.64127 | 24159 ft | 353 kts | 265° |
| 2026-05-04 17:36 | 42.50246 | -81.67416 | 23678 ft | 350 kts | 265° |
| 2026-05-04 17:36 | 42.49998 | -81.70684 | 23203 ft | 347 kts | 265° |
| 2026-05-04 17:36 | 42.49756 | -81.73866 | 22728 ft | 343 kts | 265° |
| 2026-05-04 17:37 | 42.49510 | -81.77072 | 22274 ft | 338 kts | 265° |
| 2026-05-04 17:37 | 42.49268 | -81.80222 | 21823 ft | 334 kts | 265° |
| 2026-05-04 17:37 | 42.49025 | -81.83338 | 21365 ft | 330 kts | 265° |
| 2026-05-04 17:37 | 42.48784 | -81.86412 | 20904 ft | 327 kts | 265° |
| 2026-05-04 17:38 | 42.48545 | -81.89454 | 20443 ft | 323 kts | 265° |
| 2026-05-04 17:38 | 42.48308 | -81.92467 | 19971 ft | 321 kts | 265° |
| 2026-05-04 17:38 | 42.48074 | -81.95467 | 19498 ft | 319 kts | 265° |
| 2026-05-04 17:38 | 42.47841 | -81.98444 | 19008 ft | 318 kts | 265° |
| 2026-05-04 17:39 | 42.47375 | -82.04336 | 18032 ft | 316 kts | 265° |
| 2026-05-04 17:39 | 42.47139 | -82.07291 | 17493 ft | 315 kts | 265° |
| 2026-05-04 17:39 | 42.46905 | -82.10224 | 16995 ft | 312 kts | 264° |
| 2026-05-04 17:40 | 42.46672 | -82.13136 | 16508 ft | 310 kts | 264° |
| 2026-05-04 17:40 | 42.46439 | -82.16033 | 16015 ft | 309 kts | 264° |
| 2026-05-04 17:40 | 42.46204 | -82.18915 | 15523 ft | 307 kts | 264° |
| 2026-05-04 17:40 | 42.45969 | -82.21786 | 15034 ft | 307 kts | 264° |
| 2026-05-04 17:41 | 42.45737 | -82.24610 | 14538 ft | 306 kts | 263° |
| 2026-05-04 17:41 | 42.45500 | -82.27477 | 14054 ft | 306 kts | 263° |
| 2026-05-04 17:41 | 42.45264 | -82.30336 | 13562 ft | 306 kts | 263° |
| 2026-05-04 17:41 | 42.45027 | -82.33198 | 13023 ft | 306 kts | 262° |
| 2026-05-04 17:42 | 42.44735 | -82.36039 | 12527 ft | 304 kts | 261° |
| 2026-05-04 17:42 | 42.44400 | -82.38850 | 12036 ft | 302 kts | 260° |
| 2026-05-04 17:42 | 42.44046 | -82.41657 | 11546 ft | 301 kts | 259° |
| 2026-05-04 17:42 | 42.43691 | -82.44442 | 11069 ft | 300 kts | 259° |
| 2026-05-04 17:43 | 42.43345 | -82.47187 | 10575 ft | 299 kts | 259° |
| 2026-05-04 17:43 | 42.43001 | -82.49938 | 10306 ft | 291 kts | 259° |
| 2026-05-04 17:43 | 42.42673 | -82.52584 | 10182 ft | 280 kts | 259° |
| 2026-05-04 17:43 | 42.42359 | -82.55135 | 10039 ft | 269 kts | 259° |
| 2026-05-04 17:44 | 42.42057 | -82.57608 | 9835 ft | 263 kts | 259° |
| 2026-05-04 17:44 | 42.41761 | -82.60041 | 9686 ft | 262 kts | 259° |
| 2026-05-04 17:44 | 42.41463 | -82.62469 | 9345 ft | 261 kts | 259° |
| 2026-05-04 17:44 | 42.41171 | -82.64859 | 8974 ft | 260 kts | 259° |
| 2026-05-04 17:45 | 42.40873 | -82.67273 | 8599 ft | 260 kts | 259° |
| 2026-05-04 17:45 | 42.40577 | -82.69677 | 8227 ft | 259 kts | 259° |
| 2026-05-04 17:45 | 42.40282 | -82.72071 | 7883 ft | 256 kts | 259° |
| 2026-05-04 17:45 | 42.39992 | -82.74425 | 7504 ft | 253 kts | 259° |
| 2026-05-04 17:46 | 42.39825 | -82.76794 | 7139 ft | 255 kts | 270° |
| 2026-05-04 17:46 | 42.40166 | -82.79156 | 6871 ft | 257 kts | 286° |
| 2026-05-04 17:46 | 42.40971 | -82.81312 | 6717 ft | 257 kts | 294° |
| 2026-05-04 17:46 | 42.41835 | -82.83391 | 6565 ft | 256 kts | 294° |
| 2026-05-04 17:47 | 42.42706 | -82.85491 | 6420 ft | 255 kts | 294° |
| 2026-05-04 17:47 | 42.43569 | -82.87587 | 6316 ft | 255 kts | 294° |
| 2026-05-04 17:47 | 42.44432 | -82.89685 | 6202 ft | 255 kts | 294° |
| 2026-05-04 17:47 | 42.45293 | -82.91776 | 6090 ft | 254 kts | 294° |
| 2026-05-04 17:48 | 42.46154 | -82.93868 | 5983 ft | 254 kts | 294° |
| 2026-05-04 17:48 | 42.47012 | -82.95951 | 5984 ft | 254 kts | 294° |
| 2026-05-04 17:48 | 42.47874 | -82.98041 | 5988 ft | 254 kts | 294° |
| 2026-05-04 17:48 | 42.48651 | -83.00144 | 5986 ft | 250 kts | 283° |
| 2026-05-04 17:49 | 42.48895 | -83.02439 | 5986 ft | 246 kts | 270° |
| 2026-05-04 17:49 | 42.48978 | -83.04751 | 5989 ft | 246 kts | 270° |
| 2026-05-04 17:49 | 42.49061 | -83.07064 | 5985 ft | 245 kts | 270° |
| 2026-05-04 17:49 | 42.48949 | -83.09348 | 5959 ft | 243 kts | 252° |
| 2026-05-04 17:50 | 42.48208 | -83.11387 | 5959 ft | 242 kts | 239° |
| 2026-05-04 17:50 | 42.47316 | -83.13329 | 5959 ft | 243 kts | 239° |
| 2026-05-04 17:50 | 42.46327 | -83.15186 | 5902 ft | 245 kts | 226° |
| 2026-05-04 17:50 | 42.44926 | -83.16446 | 5651 ft | 246 kts | 211° |
| 2026-05-04 17:51 | 42.43415 | -83.17542 | 5347 ft | 246 kts | 211° |
| 2026-05-04 17:51 | 42.41919 | -83.18638 | 5029 ft | 244 kts | 211° |
| 2026-05-04 17:51 | 42.40440 | -83.19735 | 4714 ft | 239 kts | 211° |
| 2026-05-04 17:51 | 42.39019 | -83.20790 | 4409 ft | 227 kts | 211° |
| 2026-05-04 17:52 | 42.37670 | -83.21790 | 4106 ft | 215 kts | 211° |
| 2026-05-04 17:52 | 42.36393 | -83.22737 | 3827 ft | 203 kts | 212° |
| 2026-05-04 17:52 | 42.35193 | -83.23627 | 3581 ft | 192 kts | 211° |
| 2026-05-04 17:52 | 42.34050 | -83.24474 | 3365 ft | 189 kts | 211° |
| 2026-05-04 17:53 | 42.32912 | -83.25318 | 3101 ft | 182 kts | 211° |
| 2026-05-04 17:53 | 42.31836 | -83.26113 | 2863 ft | 170 kts | 210° |
| 2026-05-04 17:53 | 42.30836 | -83.26853 | 2664 ft | 156 kts | 211° |
| 2026-05-04 17:53 | 42.29923 | -83.27528 | 2454 ft | 142 kts | 211° |
| 2026-05-04 17:54 | 42.29100 | -83.28137 | 2278 ft | 131 kts | 211° |
| 2026-05-04 17:54 | 42.28322 | -83.28712 | 2108 ft | 125 kts | 211° |
| 2026-05-04 17:54 | 42.27562 | -83.29275 | 1931 ft | 124 kts | 211° |
| 2026-05-04 17:54 | 42.26816 | -83.29827 | 1779 ft | 123 kts | 210° |
| 2026-05-04 17:55 | 42.26062 | -83.30384 | 1614 ft | 123 kts | 211° |
| 2026-05-04 17:55 | 42.25308 | -83.30940 | 1448 ft | 125 kts | 210° |
| 2026-05-04 17:55 | 42.24551 | -83.31500 | 1269 ft | 123 kts | 208° |
| 2026-05-04 17:55 | 42.23799 | -83.32054 | 1093 ft | 123 kts | 207° |
| 2026-05-04 17:56 | 42.23047 | -83.32614 | 951 ft | 123 kts | 208° |
| 2026-05-04 17:56 | 42.22286 | -83.33174 | 766 ft | 125 kts | 207° |
| 2026-05-04 17:56 | 42.21533 | -83.33733 | 657 ft | 116 kts | 205° |
| 2026-05-04 17:56 | 42.20960 | -83.34151 | 651 ft | 70 kts | 208° |
| 2026-05-04 17:57 | 42.20696 | -83.34352 | 650 ft | 25 kts | 219° |
| 2026-05-04 17:57 | 42.20606 | -83.34484 | 651 ft | 17 kts | 233° |
| 2026-05-04 17:57 | 42.20563 | -83.34604 | 650 ft | 11 kts | 280° |
| 2026-05-04 17:57 | 42.20633 | -83.34647 | 650 ft | 14 kts | 17° |
| 2026-05-04 17:58 | 42.20727 | -83.34577 | 650 ft | 17 kts | 30° |
| 2026-05-04 17:58 | 42.20844 | -83.34489 | 649 ft | 21 kts | 28° |
| 2026-05-04 17:58 | 42.20967 | -83.34401 | 651 ft | 11 kts | 27° |
| 2026-05-04 17:58 | 42.21030 | -83.34401 | 649 ft | 11 kts | 301° |
| 2026-05-04 17:59 | 42.21070 | -83.34509 | 649 ft | 15 kts | 298° |
| 2026-05-04 17:59 | 42.21126 | -83.34642 | 649 ft | 18 kts | 300° |
| 2026-05-04 17:59 | 42.21298 | -83.34920 | 649 ft | 20 kts | 325° |
| 2026-05-04 18:00 | 42.21421 | -83.35023 | 649 ft | 21 kts | 328° |
| 2026-05-04 18:00 | 42.21533 | -83.35114 | 649 ft | 18 kts | 326° |
| 2026-05-04 18:00 | 42.21633 | -83.35228 | 649 ft | 20 kts | 317° |
| 2026-05-04 18:00 | 42.21730 | -83.35321 | 648 ft | 14 kts | 351° |
| 2026-05-04 18:01 | 42.21835 | -83.35333 | 649 ft | 16 kts | 359° |
| 2026-05-04 18:01 | 42.21940 | -83.35313 | 649 ft | 16 kts | 26° |
| 2026-05-04 18:01 | 42.22040 | -83.35239 | 649 ft | 13 kts | 28° |
| 2026-05-04 18:02 | 42.22217 | -83.35323 | 651 ft | 14 kts | 330° |
| 2026-05-04 18:02 | 42.22285 | -83.35347 | 649 ft | 8 kts | 14° |
| 2026-05-04 18:02 | 42.22338 | -83.35296 | 649 ft | 10 kts | 35° |
| 2026-05-04 18:02 | 42.22361 | -83.35227 | 649 ft | 10 kts | 116° |
| 2026-05-04 18:03 | 42.22318 | -83.35208 | 649 ft | 5 kts | 165° |
| 2026-05-04 18:03 | 42.22307 | -83.35204 | 649 ft | 0 kts | 163° |